sensor_id;sensor_type;location;lat;lon;timestamp;P1;P2;P0
64114;PMS5003;62188;35.640;139.748;2022-11-21T00:03:28;7;7;
64114;PMS5003;62188;35.640;139.748;2022-11-21T00:05:53;8;7;
64114;PMS5003;62188;35.640;139.748;2022-11-21T00:08:19;7;6;
64114;PMS5003;62188;35.640;139.748;2022-11-21T00:10:44;7;7;
64114;PMS5003;62188;35.640;139.748;2022-11-21T00:13:11;9;8;
64114;PMS5003;62188;35.640;139.748;2022-11-21T00:15:35;6;6;
64114;PMS5003;62188;35.640;139.748;2022-11-21T00:18:02;7;6;
64114;PMS5003;62188;35.640;139.748;2022-11-21T00:20:26;9;7;
64114;PMS5003;62188;35.640;139.748;2022-11-21T00:22:52;8;8;
64114;PMS5003;62188;35.640;139.748;2022-11-21T00:25:17;8;8;
64114;PMS5003;62188;35.640;139.748;2022-11-21T00:27:43;5;4;
64114;PMS5003;62188;35.640;139.748;2022-11-21T00:30:09;8;7;
64114;PMS5003;62188;35.640;139.748;2022-11-21T00:32:34;7;6;
64114;PMS5003;62188;35.640;139.748;2022-11-21T00:34:59;7;7;
64114;PMS5003;62188;35.640;139.748;2022-11-21T00:37:26;8;8;
64114;PMS5003;62188;35.640;139.748;2022-11-21T00:39:51;8;8;
64114;PMS5003;62188;35.640;139.748;2022-11-21T00:42:17;7;7;
64114;PMS5003;62188;35.640;139.748;2022-11-21T00:44:42;6;6;
64114;PMS5003;62188;35.640;139.748;2022-11-21T00:47:07;6;6;
64114;PMS5003;62188;35.640;139.748;2022-11-21T00:49:33;6;6;
64114;PMS5003;62188;35.640;139.748;2022-11-21T00:51:59;6;6;
64114;PMS5003;62188;35.640;139.748;2022-11-21T00:54:24;6;6;
64114;PMS5003;62188;35.640;139.748;2022-11-21T00:56:50;6;5;
64114;PMS5003;62188;35.640;139.748;2022-11-21T00:59:15;6;6;
64114;PMS5003;62188;35.640;139.748;2022-11-21T01:01:41;6;6;
64114;PMS5003;62188;35.640;139.748;2022-11-21T01:04:06;7;7;
64114;PMS5003;62188;35.640;139.748;2022-11-21T01:06:32;6;5;
64114;PMS5003;62188;35.640;139.748;2022-11-21T01:08:57;8;6;
64114;PMS5003;62188;35.640;139.748;2022-11-21T01:11:23;7;7;
64114;PMS5003;62188;35.640;139.748;2022-11-21T01:13:48;7;7;
64114;PMS5003;62188;35.640;139.748;2022-11-21T01:16:14;6;6;
64114;PMS5003;62188;35.640;139.748;2022-11-21T01:18:39;7;7;
64114;PMS5003;62188;35.640;139.748;2022-11-21T01:21:05;8;7;
64114;PMS5003;62188;35.640;139.748;2022-11-21T01:23:31;6;5;
64114;PMS5003;62188;35.640;139.748;2022-11-21T01:26:00;7;7;
64114;PMS5003;62188;35.640;139.748;2022-11-21T01:28:21;8;7;
64114;PMS5003;62188;35.640;139.748;2022-11-21T01:30:47;5;5;
64114;PMS5003;62188;35.640;139.748;2022-11-21T01:33:12;9;8;
64114;PMS5003;62188;35.640;139.748;2022-11-21T01:35:38;8;7;
64114;PMS5003;62188;35.640;139.748;2022-11-21T01:38:03;9;9;
64114;PMS5003;62188;35.640;139.748;2022-11-21T01:40:29;8;8;
64114;PMS5003;62188;35.640;139.748;2022-11-21T01:42:57;6;6;
64114;PMS5003;62188;35.640;139.748;2022-11-21T01:47:46;8;7;
64114;PMS5003;62188;35.640;139.748;2022-11-21T01:50:11;8;8;
64114;PMS5003;62188;35.640;139.748;2022-11-21T01:52:37;8;8;
64114;PMS5003;62188;35.640;139.748;2022-11-21T01:55:03;8;8;
64114;PMS5003;62188;35.640;139.748;2022-11-21T01:57:28;9;8;
64114;PMS5003;62188;35.640;139.748;2022-11-21T01:59:54;10;10;
64114;PMS5003;62188;35.640;139.748;2022-11-21T02:02:20;8;8;
64114;PMS5003;62188;35.640;139.748;2022-11-21T02:04:46;10;9;
64114;PMS5003;62188;35.640;139.748;2022-11-21T02:07:10;8;8;
64114;PMS5003;62188;35.640;139.748;2022-11-21T02:09:36;8;8;
64114;PMS5003;62188;35.640;139.748;2022-11-21T02:12:03;10;10;
64114;PMS5003;62188;35.640;139.748;2022-11-21T02:14:27;7;6;
64114;PMS5003;62188;35.640;139.748;2022-11-21T02:16:52;8;8;
64114;PMS5003;62188;35.640;139.748;2022-11-21T02:19:19;12;11;
64114;PMS5003;62188;35.640;139.748;2022-11-21T02:21:43;9;9;
64114;PMS5003;62188;35.640;139.748;2022-11-21T02:24:10;8;7;
64114;PMS5003;62188;35.640;139.748;2022-11-21T02:26:34;9;9;
64114;PMS5003;62188;35.640;139.748;2022-11-21T02:28:59;7;7;
64114;PMS5003;62188;35.640;139.748;2022-11-21T02:31:25;6;6;
64114;PMS5003;62188;35.640;139.748;2022-11-21T02:33:50;9;9;
64114;PMS5003;62188;35.640;139.748;2022-11-21T02:38:41;9;9;
64114;PMS5003;62188;35.640;139.748;2022-11-21T02:41:08;9;9;
64114;PMS5003;62188;35.640;139.748;2022-11-21T02:43:34;10;9;
64114;PMS5003;62188;35.640;139.748;2022-11-21T02:45:57;7;7;
64114;PMS5003;62188;35.640;139.748;2022-11-21T02:48:23;11;11;
64114;PMS5003;62188;35.640;139.748;2022-11-21T02:50:49;11;10;
64114;PMS5003;62188;35.640;139.748;2022-11-21T02:53:16;10;10;
64114;PMS5003;62188;35.640;139.748;2022-11-21T02:55:40;13;11;
64114;PMS5003;62188;35.640;139.748;2022-11-21T02:58:05;13;13;
64114;PMS5003;62188;35.640;139.748;2022-11-21T03:00:31;13;12;
64114;PMS5003;62188;35.640;139.748;2022-11-21T03:02:57;12;12;
64114;PMS5003;62188;35.640;139.748;2022-11-21T03:05:22;11;11;
64114;PMS5003;62188;35.640;139.748;2022-11-21T03:07:47;13;13;
64114;PMS5003;62188;35.640;139.748;2022-11-21T03:10:13;14;14;
64114;PMS5003;62188;35.640;139.748;2022-11-21T03:12:39;11;10;
64114;PMS5003;62188;35.640;139.748;2022-11-21T03:15:04;11;10;
64114;PMS5003;62188;35.640;139.748;2022-11-21T03:17:30;11;11;
64114;PMS5003;62188;35.640;139.748;2022-11-21T03:19:55;13;13;
64114;PMS5003;62188;35.640;139.748;2022-11-21T03:22:20;12;12;
64114;PMS5003;62188;35.640;139.748;2022-11-21T03:24:46;13;13;
64114;PMS5003;62188;35.640;139.748;2022-11-21T03:27:11;14;13;
64114;PMS5003;62188;35.640;139.748;2022-11-21T03:29:36;13;13;
64114;PMS5003;62188;35.640;139.748;2022-11-21T03:32:02;13;11;
64114;PMS5003;62188;35.640;139.748;2022-11-21T03:34:27;14;14;
64114;PMS5003;62188;35.640;139.748;2022-11-21T03:36:53;14;11;
64114;PMS5003;62188;35.640;139.748;2022-11-21T03:39:18;12;11;
64114;PMS5003;62188;35.640;139.748;2022-11-21T03:41:44;15;14;
64114;PMS5003;62188;35.640;139.748;2022-11-21T03:44:10;12;12;
64114;PMS5003;62188;35.640;139.748;2022-11-21T03:46:36;11;11;
64114;PMS5003;62188;35.640;139.748;2022-11-21T03:49:00;16;14;
64114;PMS5003;62188;35.640;139.748;2022-11-21T03:51:26;14;13;
64114;PMS5003;62188;35.640;139.748;2022-11-21T03:53:51;12;11;
64114;PMS5003;62188;35.640;139.748;2022-11-21T03:56:17;14;14;
64114;PMS5003;62188;35.640;139.748;2022-11-21T03:58:43;16;15;
64114;PMS5003;62188;35.640;139.748;2022-11-21T04:01:08;16;16;
64114;PMS5003;62188;35.640;139.748;2022-11-21T04:03:33;14;13;
64114;PMS5003;62188;35.640;139.748;2022-11-21T04:05:59;14;13;
64114;PMS5003;62188;35.640;139.748;2022-11-21T04:08:24;13;11;
64114;PMS5003;62188;35.640;139.748;2022-11-21T04:10:50;10;10;
64114;PMS5003;62188;35.640;139.748;2022-11-21T04:13:15;12;11;
64114;PMS5003;62188;35.640;139.748;2022-11-21T04:15:40;10;10;
64114;PMS5003;62188;35.640;139.748;2022-11-21T04:18:06;13;12;
64114;PMS5003;62188;35.640;139.748;2022-11-21T04:20:31;12;12;
64114;PMS5003;62188;35.640;139.748;2022-11-21T04:22:56;16;15;
64114;PMS5003;62188;35.640;139.748;2022-11-21T04:25:21;14;13;
64114;PMS5003;62188;35.640;139.748;2022-11-21T04:27:47;14;13;
64114;PMS5003;62188;35.640;139.748;2022-11-21T04:30:13;14;13;
64114;PMS5003;62188;35.640;139.748;2022-11-21T04:32:38;14;13;
64114;PMS5003;62188;35.640;139.748;2022-11-21T04:35:03;13;13;
64114;PMS5003;62188;35.640;139.748;2022-11-21T04:37:28;10;10;
64114;PMS5003;62188;35.640;139.748;2022-11-21T04:39:53;12;12;
64114;PMS5003;62188;35.640;139.748;2022-11-21T04:42:19;10;10;
64114;PMS5003;62188;35.640;139.748;2022-11-21T04:44:45;12;12;
64114;PMS5003;62188;35.640;139.748;2022-11-21T04:47:10;13;13;
64114;PMS5003;62188;35.640;139.748;2022-11-21T04:49:35;10;9;
64114;PMS5003;62188;35.640;139.748;2022-11-21T04:52:01;10;10;
64114;PMS5003;62188;35.640;139.748;2022-11-21T04:54:26;9;9;
64114;PMS5003;62188;35.640;139.748;2022-11-21T04:56:52;13;13;
64114;PMS5003;62188;35.640;139.748;2022-11-21T04:59:17;10;10;
64114;PMS5003;62188;35.640;139.748;2022-11-21T05:01:42;9;9;
64114;PMS5003;62188;35.640;139.748;2022-11-21T05:04:08;10;9;
64114;PMS5003;62188;35.640;139.748;2022-11-21T05:06:33;13;11;
64114;PMS5003;62188;35.640;139.748;2022-11-21T05:08:59;10;10;
64114;PMS5003;62188;35.640;139.748;2022-11-21T05:11:24;11;10;
64114;PMS5003;62188;35.640;139.748;2022-11-21T05:13:51;11;10;
64114;PMS5003;62188;35.640;139.748;2022-11-21T05:16:15;11;10;
64114;PMS5003;62188;35.640;139.748;2022-11-21T05:18:41;11;11;
64114;PMS5003;62188;35.640;139.748;2022-11-21T05:21:06;12;11;
64114;PMS5003;62188;35.640;139.748;2022-11-21T05:23:32;12;11;
64114;PMS5003;62188;35.640;139.748;2022-11-21T05:25:57;10;10;
64114;PMS5003;62188;35.640;139.748;2022-11-21T05:28:22;10;10;
64114;PMS5003;62188;35.640;139.748;2022-11-21T05:30:48;13;11;
64114;PMS5003;62188;35.640;139.748;2022-11-21T05:33:13;11;10;
64114;PMS5003;62188;35.640;139.748;2022-11-21T05:35:39;10;10;
64114;PMS5003;62188;35.640;139.748;2022-11-21T05:38:04;13;13;
64114;PMS5003;62188;35.640;139.748;2022-11-21T05:40:30;13;13;
64114;PMS5003;62188;35.640;139.748;2022-11-21T05:42:55;11;11;
64114;PMS5003;62188;35.640;139.748;2022-11-21T05:45:21;12;12;
64114;PMS5003;62188;35.640;139.748;2022-11-21T05:47:46;12;12;
64114;PMS5003;62188;35.640;139.748;2022-11-21T05:50:12;12;12;
64114;PMS5003;62188;35.640;139.748;2022-11-21T05:52:37;9;9;
64114;PMS5003;62188;35.640;139.748;2022-11-21T05:55:02;14;13;
64114;PMS5003;62188;35.640;139.748;2022-11-21T05:57:28;13;11;
64114;PMS5003;62188;35.640;139.748;2022-11-21T05:59:54;12;11;
64114;PMS5003;62188;35.640;139.748;2022-11-21T06:02:19;13;12;
64114;PMS5003;62188;35.640;139.748;2022-11-21T06:04:45;12;10;
64114;PMS5003;62188;35.640;139.748;2022-11-21T06:07:10;14;13;
64114;PMS5003;62188;35.640;139.748;2022-11-21T06:09:36;10;10;
64114;PMS5003;62188;35.640;139.748;2022-11-21T06:12:01;12;11;
64114;PMS5003;62188;35.640;139.748;2022-11-21T06:14:27;13;13;
64114;PMS5003;62188;35.640;139.748;2022-11-21T06:16:52;12;11;
64114;PMS5003;62188;35.640;139.748;2022-11-21T06:19:18;10;9;
64114;PMS5003;62188;35.640;139.748;2022-11-21T06:21:43;11;10;
64114;PMS5003;62188;35.640;139.748;2022-11-21T06:24:08;9;9;
64114;PMS5003;62188;35.640;139.748;2022-11-21T06:26:34;12;11;
64114;PMS5003;62188;35.640;139.748;2022-11-21T06:29:00;11;10;
64114;PMS5003;62188;35.640;139.748;2022-11-21T06:31:25;10;10;
64114;PMS5003;62188;35.640;139.748;2022-11-21T06:33:51;14;11;
64114;PMS5003;62188;35.640;139.748;2022-11-21T06:36:16;13;12;
64114;PMS5003;62188;35.640;139.748;2022-11-21T06:38:41;11;11;
64114;PMS5003;62188;35.640;139.748;2022-11-21T06:41:09;9;8;
64114;PMS5003;62188;35.640;139.748;2022-11-21T06:43:32;11;11;
64114;PMS5003;62188;35.640;139.748;2022-11-21T06:45:58;13;11;
64114;PMS5003;62188;35.640;139.748;2022-11-21T06:48:23;10;10;
64114;PMS5003;62188;35.640;139.748;2022-11-21T06:50:49;13;12;
64114;PMS5003;62188;35.640;139.748;2022-11-21T06:53:14;14;14;
64114;PMS5003;62188;35.640;139.748;2022-11-21T06:55:40;10;10;
64114;PMS5003;62188;35.640;139.748;2022-11-21T06:58:05;12;11;
64114;PMS5003;62188;35.640;139.748;2022-11-21T07:00:31;14;13;
64114;PMS5003;62188;35.640;139.748;2022-11-21T07:02:59;13;13;
64114;PMS5003;62188;35.640;139.748;2022-11-21T07:05:21;14;14;
64114;PMS5003;62188;35.640;139.748;2022-11-21T07:07:47;12;12;
64114;PMS5003;62188;35.640;139.748;2022-11-21T07:10:12;14;13;
64114;PMS5003;62188;35.640;139.748;2022-11-21T07:12:38;13;13;
64114;PMS5003;62188;35.640;139.748;2022-11-21T07:15:04;16;16;
64114;PMS5003;62188;35.640;139.748;2022-11-21T07:17:28;12;12;
64114;PMS5003;62188;35.640;139.748;2022-11-21T07:19:54;18;18;
64114;PMS5003;62188;35.640;139.748;2022-11-21T07:22:19;17;17;
64114;PMS5003;62188;35.640;139.748;2022-11-21T07:24:45;17;17;
64114;PMS5003;62188;35.640;139.748;2022-11-21T07:27:11;17;15;
64114;PMS5003;62188;35.640;139.748;2022-11-21T07:29:36;18;18;
64114;PMS5003;62188;35.640;139.748;2022-11-21T07:32:02;16;16;
64114;PMS5003;62188;35.640;139.748;2022-11-21T07:34:27;18;17;
64114;PMS5003;62188;35.640;139.748;2022-11-21T07:36:52;20;20;
64114;PMS5003;62188;35.640;139.748;2022-11-21T07:39:18;19;18;
64114;PMS5003;62188;35.640;139.748;2022-11-21T07:41:43;19;19;
64114;PMS5003;62188;35.640;139.748;2022-11-21T07:44:09;24;23;
64114;PMS5003;62188;35.640;139.748;2022-11-21T07:46:35;22;22;
64114;PMS5003;62188;35.640;139.748;2022-11-21T07:48:59;23;22;
64114;PMS5003;62188;35.640;139.748;2022-11-21T07:51:25;24;20;
64114;PMS5003;62188;35.640;139.748;2022-11-21T07:53:50;26;26;
64114;PMS5003;62188;35.640;139.748;2022-11-21T07:56:16;21;20;
64114;PMS5003;62188;35.640;139.748;2022-11-21T07:58:42;19;18;
64114;PMS5003;62188;35.640;139.748;2022-11-21T08:01:08;19;19;
64114;PMS5003;62188;35.640;139.748;2022-11-21T08:03:33;18;18;
64114;PMS5003;62188;35.640;139.748;2022-11-21T08:06:00;22;22;
64114;PMS5003;62188;35.640;139.748;2022-11-21T08:08:23;23;20;
64114;PMS5003;62188;35.640;139.748;2022-11-21T08:10:49;20;20;
64114;PMS5003;62188;35.640;139.748;2022-11-21T08:13:14;25;25;
64114;PMS5003;62188;35.640;139.748;2022-11-21T08:15:39;23;22;
64114;PMS5003;62188;35.640;139.748;2022-11-21T08:18:06;22;22;
64114;PMS5003;62188;35.640;139.748;2022-11-21T08:20:30;21;21;
64114;PMS5003;62188;35.640;139.748;2022-11-21T08:22:55;22;22;
64114;PMS5003;62188;35.640;139.748;2022-11-21T08:25:21;26;25;
64114;PMS5003;62188;35.640;139.748;2022-11-21T08:27:46;25;25;
64114;PMS5003;62188;35.640;139.748;2022-11-21T08:30:12;24;23;
64114;PMS5003;62188;35.640;139.748;2022-11-21T08:32:37;22;22;
64114;PMS5003;62188;35.640;139.748;2022-11-21T08:35:02;28;26;
64114;PMS5003;62188;35.640;139.748;2022-11-21T08:37:28;26;26;
64114;PMS5003;62188;35.640;139.748;2022-11-21T08:39:53;29;29;
64114;PMS5003;62188;35.640;139.748;2022-11-21T08:42:18;23;23;
64114;PMS5003;62188;35.640;139.748;2022-11-21T08:44:43;26;26;
64114;PMS5003;62188;35.640;139.748;2022-11-21T08:47:08;31;31;
64114;PMS5003;62188;35.640;139.748;2022-11-21T08:49:34;27;27;
64114;PMS5003;62188;35.640;139.748;2022-11-21T08:51:59;27;27;
64114;PMS5003;62188;35.640;139.748;2022-11-21T08:54:25;26;26;
64114;PMS5003;62188;35.640;139.748;2022-11-21T08:56:51;26;23;
64114;PMS5003;62188;35.640;139.748;2022-11-21T08:59:16;27;27;
64114;PMS5003;62188;35.640;139.748;2022-11-21T09:01:41;28;28;
64114;PMS5003;62188;35.640;139.748;2022-11-21T09:04:07;28;27;
64114;PMS5003;62188;35.640;139.748;2022-11-21T09:06:32;26;26;
64114;PMS5003;62188;35.640;139.748;2022-11-21T09:08:58;25;24;
64114;PMS5003;62188;35.640;139.748;2022-11-21T09:11:23;24;23;
64114;PMS5003;62188;35.640;139.748;2022-11-21T09:13:49;25;25;
64114;PMS5003;62188;35.640;139.748;2022-11-21T09:16:14;26;26;
64114;PMS5003;62188;35.640;139.748;2022-11-21T09:18:39;25;25;
64114;PMS5003;62188;35.640;139.748;2022-11-21T09:21:05;26;25;
64114;PMS5003;62188;35.640;139.748;2022-11-21T09:23:30;25;25;
64114;PMS5003;62188;35.640;139.748;2022-11-21T09:25:55;27;27;
64114;PMS5003;62188;35.640;139.748;2022-11-21T09:28:21;26;25;
64114;PMS5003;62188;35.640;139.748;2022-11-21T09:30:47;28;26;
64114;PMS5003;62188;35.640;139.748;2022-11-21T09:33:13;26;26;
64114;PMS5003;62188;35.640;139.748;2022-11-21T09:35:37;28;28;
64114;PMS5003;62188;35.640;139.748;2022-11-21T09:38:02;25;25;
64114;PMS5003;62188;35.640;139.748;2022-11-21T09:40:28;25;25;
64114;PMS5003;62188;35.640;139.748;2022-11-21T09:42:58;26;25;
64114;PMS5003;62188;35.640;139.748;2022-11-21T09:45:20;32;31;
64114;PMS5003;62188;35.640;139.748;2022-11-21T09:47:45;26;25;
64114;PMS5003;62188;35.640;139.748;2022-11-21T09:52:37;26;26;
64114;PMS5003;62188;35.640;139.748;2022-11-21T09:55:02;32;29;
64114;PMS5003;62188;35.640;139.748;2022-11-21T09:57:27;31;29;
64114;PMS5003;62188;35.640;139.748;2022-11-21T09:59:52;27;27;
64114;PMS5003;62188;35.640;139.748;2022-11-21T10:02:18;29;28;
64114;PMS5003;62188;35.640;139.748;2022-11-21T10:04:43;25;24;
64114;PMS5003;62188;35.640;139.748;2022-11-21T10:07:10;25;25;
64114;PMS5003;62188;35.640;139.748;2022-11-21T10:09:41;26;25;
64114;PMS5003;62188;35.640;139.748;2022-11-21T10:12:01;24;24;
64114;PMS5003;62188;35.640;139.748;2022-11-21T10:14:27;28;27;
64114;PMS5003;62188;35.640;139.748;2022-11-21T10:16:52;24;23;
64114;PMS5003;62188;35.640;139.748;2022-11-21T10:19:26;26;24;
64114;PMS5003;62188;35.640;139.748;2022-11-21T10:26:34;22;22;
64114;PMS5003;62188;35.640;139.748;2022-11-21T10:28:59;23;23;
64114;PMS5003;62188;35.640;139.748;2022-11-21T10:31:23;20;20;
64114;PMS5003;62188;35.640;139.748;2022-11-21T10:33:48;27;25;
64114;PMS5003;62188;35.640;139.748;2022-11-21T10:36:18;48;46;
64114;PMS5003;62188;35.640;139.748;2022-11-21T10:38:40;35;35;
64114;PMS5003;62188;35.640;139.748;2022-11-21T10:41:08;36;34;
64114;PMS5003;62188;35.640;139.748;2022-11-21T10:43:33;38;35;
64114;PMS5003;62188;35.640;139.748;2022-11-21T10:45:57;32;30;
64114;PMS5003;62188;35.640;139.748;2022-11-21T10:48:22;33;32;
64114;PMS5003;62188;35.640;139.748;2022-11-21T10:50:52;33;32;
64114;PMS5003;62188;35.640;139.748;2022-11-21T10:53:15;29;28;
64114;PMS5003;62188;35.640;139.748;2022-11-21T10:55:39;30;28;
64114;PMS5003;62188;35.640;139.748;2022-11-21T10:58:15;24;23;
64114;PMS5003;62188;35.640;139.748;2022-11-21T11:00:30;34;32;
64114;PMS5003;62188;35.640;139.748;2022-11-21T11:03:04;148;139;
64114;PMS5003;62188;35.640;139.748;2022-11-21T11:05:21;963;864;
64114;PMS5003;62188;35.640;139.748;2022-11-21T11:10:14;542;439;
64114;PMS5003;62188;35.640;139.748;2022-11-21T11:12:37;941;786;
64114;PMS5003;62188;35.640;139.748;2022-11-21T11:15:03;720;591;
64114;PMS5003;62188;35.640;139.748;2022-11-21T11:17:29;626;565;
64114;PMS5003;62188;35.640;139.748;2022-11-21T11:20:00;1321;1053;
64114;PMS5003;62188;35.640;139.748;2022-11-21T11:27:09;215;204;
64114;PMS5003;62188;35.640;139.748;2022-11-21T11:29:34;169;152;
64114;PMS5003;62188;35.640;139.748;2022-11-21T11:32:00;107;99;
64114;PMS5003;62188;35.640;139.748;2022-11-21T11:34:25;142;131;
64114;PMS5003;62188;35.640;139.748;2022-11-21T11:36:55;89;84;
64114;PMS5003;62188;35.640;139.748;2022-11-21T11:39:17;65;60;
64114;PMS5003;62188;35.640;139.748;2022-11-21T11:41:46;82;79;
64114;PMS5003;62188;35.640;139.748;2022-11-21T11:44:08;73;69;
64114;PMS5003;62188;35.640;139.748;2022-11-21T11:46:34;50;49;
64114;PMS5003;62188;35.640;139.748;2022-11-21T11:49:00;43;41;
64114;PMS5003;62188;35.640;139.748;2022-11-21T11:51:23;40;38;
64114;PMS5003;62188;35.640;139.748;2022-11-21T11:53:49;39;36;
64114;PMS5003;62188;35.640;139.748;2022-11-21T11:56:15;31;29;
64114;PMS5003;62188;35.640;139.748;2022-11-21T11:58:40;36;35;
64114;PMS5003;62188;35.640;139.748;2022-11-21T12:01:06;32;31;
64114;PMS5003;62188;35.640;139.748;2022-11-21T12:03:33;32;31;
64114;PMS5003;62188;35.640;139.748;2022-11-21T12:05:57;33;32;
64114;PMS5003;62188;35.640;139.748;2022-11-21T12:08:24;33;33;
64114;PMS5003;62188;35.640;139.748;2022-11-21T12:10:49;32;31;
64114;PMS5003;62188;35.640;139.748;2022-11-21T12:13:13;33;32;
64114;PMS5003;62188;35.640;139.748;2022-11-21T12:15:39;32;32;
64114;PMS5003;62188;35.640;139.748;2022-11-21T12:18:11;38;37;
64114;PMS5003;62188;35.640;139.748;2022-11-21T12:20:31;32;32;
64114;PMS5003;62188;35.640;139.748;2022-11-21T12:22:55;36;33;
64114;PMS5003;62188;35.640;139.748;2022-11-21T12:25:22;33;33;
64114;PMS5003;62188;35.640;139.748;2022-11-21T12:27:47;37;35;
64114;PMS5003;62188;35.640;139.748;2022-11-21T12:32:41;35;33;
64114;PMS5003;62188;35.640;139.748;2022-11-21T12:37:32;28;27;
64114;PMS5003;62188;35.640;139.748;2022-11-21T12:39:56;36;35;
64114;PMS5003;62188;35.640;139.748;2022-11-21T12:42:22;34;32;
64114;PMS5003;62188;35.640;139.748;2022-11-21T12:44:50;38;38;
64114;PMS5003;62188;35.640;139.748;2022-11-21T12:47:16;34;34;
64114;PMS5003;62188;35.640;139.748;2022-11-21T12:49:37;35;34;
64114;PMS5003;62188;35.640;139.748;2022-11-21T12:52:03;36;36;
64114;PMS5003;62188;35.640;139.748;2022-11-21T12:54:30;30;30;
64114;PMS5003;62188;35.640;139.748;2022-11-21T12:56:53;33;32;
64114;PMS5003;62188;35.640;139.748;2022-11-21T12:59:17;30;29;
64114;PMS5003;62188;35.640;139.748;2022-11-21T13:01:44;35;34;
64114;PMS5003;62188;35.640;139.748;2022-11-21T13:04:09;31;30;
64114;PMS5003;62188;35.640;139.748;2022-11-21T13:06:35;35;35;
64114;PMS5003;62188;35.640;139.748;2022-11-21T13:08:59;34;32;
64114;PMS5003;62188;35.640;139.748;2022-11-21T13:11:26;36;35;
64114;PMS5003;62188;35.640;139.748;2022-11-21T13:13:51;34;33;
64114;PMS5003;62188;35.640;139.748;2022-11-21T13:16:16;28;27;
64114;PMS5003;62188;35.640;139.748;2022-11-21T13:18:41;31;30;
64114;PMS5003;62188;35.640;139.748;2022-11-21T13:21:08;30;29;
64114;PMS5003;62188;35.640;139.748;2022-11-21T13:23:35;30;27;
64114;PMS5003;62188;35.640;139.748;2022-11-21T13:25:56;31;30;
64114;PMS5003;62188;35.640;139.748;2022-11-21T13:28:26;28;24;
64114;PMS5003;62188;35.640;139.748;2022-11-21T13:30:47;29;27;
64114;PMS5003;62188;35.640;139.748;2022-11-21T13:38:03;28;26;
64114;PMS5003;62188;35.640;139.748;2022-11-21T13:40:34;28;26;
64114;PMS5003;62188;35.640;139.748;2022-11-21T13:50:15;35;32;
64114;PMS5003;62188;35.640;139.748;2022-11-21T13:52:39;36;33;
64114;PMS5003;62188;35.640;139.748;2022-11-21T13:55:05;32;29;
64114;PMS5003;62188;35.640;139.748;2022-11-21T13:57:30;29;29;
64114;PMS5003;62188;35.640;139.748;2022-11-21T14:00:01;31;27;
64114;PMS5003;62188;35.640;139.748;2022-11-21T14:02:25;28;27;
64114;PMS5003;62188;35.640;139.748;2022-11-21T14:07:18;28;28;
64114;PMS5003;62188;35.640;139.748;2022-11-21T14:09:35;31;29;
64114;PMS5003;62188;35.640;139.748;2022-11-21T14:12:00;30;30;
64114;PMS5003;62188;35.640;139.748;2022-11-21T14:14:27;29;27;
64114;PMS5003;62188;35.640;139.748;2022-11-21T14:16:52;26;25;
64114;PMS5003;62188;35.640;139.748;2022-11-21T14:19:17;29;29;
64114;PMS5003;62188;35.640;139.748;2022-11-21T14:21:42;31;27;
64114;PMS5003;62188;35.640;139.748;2022-11-21T14:24:12;26;26;
64114;PMS5003;62188;35.640;139.748;2022-11-21T14:26:33;31;29;
64114;PMS5003;62188;35.640;139.748;2022-11-21T14:31:23;36;34;
64114;PMS5003;62188;35.640;139.748;2022-11-21T14:33:49;36;35;
64114;PMS5003;62188;35.640;139.748;2022-11-21T14:36:14;36;33;
64114;PMS5003;62188;35.640;139.748;2022-11-21T14:38:40;34;31;
64114;PMS5003;62188;35.640;139.748;2022-11-21T14:41:16;41;39;
64114;PMS5003;62188;35.640;139.748;2022-11-21T14:43:31;35;35;
64114;PMS5003;62188;35.640;139.748;2022-11-21T14:45:56;38;36;
64114;PMS5003;62188;35.640;139.748;2022-11-21T14:48:24;39;38;
64114;PMS5003;62188;35.640;139.748;2022-11-21T14:50:47;46;42;
64114;PMS5003;62188;35.640;139.748;2022-11-21T14:53:12;37;35;
64114;PMS5003;62188;35.640;139.748;2022-11-21T14:55:37;43;40;
64114;PMS5003;62188;35.640;139.748;2022-11-21T14:58:04;41;41;
64114;PMS5003;62188;35.640;139.748;2022-11-21T15:00:29;45;44;
64114;PMS5003;62188;35.640;139.748;2022-11-21T15:02:55;42;40;
64114;PMS5003;62188;35.640;139.748;2022-11-21T15:05:19;39;38;
64114;PMS5003;62188;35.640;139.748;2022-11-21T15:07:45;46;45;
64114;PMS5003;62188;35.640;139.748;2022-11-21T15:10:11;48;46;
64114;PMS5003;62188;35.640;139.748;2022-11-21T15:12:37;44;44;
64114;PMS5003;62188;35.640;139.748;2022-11-21T15:15:01;44;43;
64114;PMS5003;62188;35.640;139.748;2022-11-21T15:17:27;42;41;
64114;PMS5003;62188;35.640;139.748;2022-11-21T15:22:19;52;49;
64114;PMS5003;62188;35.640;139.748;2022-11-21T15:24:43;49;47;
64114;PMS5003;62188;35.640;139.748;2022-11-21T15:29:34;41;41;
64114;PMS5003;62188;35.640;139.748;2022-11-21T15:32:05;43;43;
64114;PMS5003;62188;35.640;139.748;2022-11-21T15:34:26;48;47;
64114;PMS5003;62188;35.640;139.748;2022-11-21T15:39:18;47;46;
64114;PMS5003;62188;35.640;139.748;2022-11-21T15:41:42;43;42;
64114;PMS5003;62188;35.640;139.748;2022-11-21T15:44:20;36;35;
64114;PMS5003;62188;35.640;139.748;2022-11-21T15:46:33;48;42;
64114;PMS5003;62188;35.640;139.748;2022-11-21T15:48:59;37;36;
64114;PMS5003;62188;35.640;139.748;2022-11-21T15:51:25;36;35;
64114;PMS5003;62188;35.640;139.748;2022-11-21T15:53:50;40;38;
64114;PMS5003;62188;35.640;139.748;2022-11-21T15:56:16;42;41;
64114;PMS5003;62188;35.640;139.748;2022-11-21T15:58:41;36;35;
64114;PMS5003;62188;35.640;139.748;2022-11-21T16:01:11;40;39;
64114;PMS5003;62188;35.640;139.748;2022-11-21T16:03:33;37;36;
64114;PMS5003;62188;35.640;139.748;2022-11-21T16:05:58;39;36;
64114;PMS5003;62188;35.640;139.748;2022-11-21T16:08:24;38;36;
64114;PMS5003;62188;35.640;139.748;2022-11-21T16:10:49;35;32;
64114;PMS5003;62188;35.640;139.748;2022-11-21T16:13:15;35;34;
64114;PMS5003;62188;35.640;139.748;2022-11-21T16:15:41;32;32;
64114;PMS5003;62188;35.640;139.748;2022-11-21T16:18:07;34;33;
64114;PMS5003;62188;35.640;139.748;2022-11-21T16:20:32;36;32;
64114;PMS5003;62188;35.640;139.748;2022-11-21T16:22:57;31;31;
64114;PMS5003;62188;35.640;139.748;2022-11-21T16:25:23;32;31;
64114;PMS5003;62188;35.640;139.748;2022-11-21T16:27:49;33;32;
64114;PMS5003;62188;35.640;139.748;2022-11-21T16:30:14;32;31;